createdAt,value
2022-11-28T00:02:24.497Z,26.33
2022-11-28T00:04:52.193Z,21.33
2022-11-28T00:07:19.671Z,26.05
2022-11-28T00:09:46.580Z,31.25
2022-11-28T00:12:13.521Z,23.57
2022-11-28T00:14:40.506Z,21.98
2022-11-28T00:17:07.640Z,20.70
2022-11-28T00:19:34.478Z,17.08
2022-11-28T00:22:02.298Z,17.55
2022-11-28T00:24:29.008Z,17.90
2022-11-28T00:26:55.878Z,16.70
2022-11-28T00:29:22.490Z,15.38
2022-11-28T00:31:49.656Z,13.32
2022-11-28T00:34:16.448Z,18.60
2022-11-28T00:36:45.855Z,19.40
2022-11-28T00:39:13.346Z,18.60
2022-11-28T00:41:40.508Z,20.98
2022-11-28T00:44:07.699Z,20.55
2022-11-28T00:46:34.905Z,26.00
2022-11-28T00:49:01.657Z,24.33
2022-11-28T00:51:31.887Z,23.10
2022-11-28T00:54:00.397Z,20.85
2022-11-28T00:56:31.352Z,18.20
2022-11-28T00:58:58.490Z,21.13
2022-11-28T01:01:28.682Z,21.47
2022-11-28T01:03:57.381Z,20.42
2022-11-28T01:06:27.389Z,21.33
2022-11-28T01:08:54.743Z,20.35
2022-11-28T01:11:22.327Z,20.83
2022-11-28T01:13:49.600Z,28.60
2022-11-28T01:16:17.515Z,28.50
2022-11-28T01:18:44.213Z,27.80
2022-11-28T01:21:11.271Z,28.08
2022-11-28T01:23:37.999Z,26.38
2022-11-28T01:26:06.885Z,24.33
2022-11-28T01:28:34.684Z,25.92
2022-11-28T01:31:10.490Z,24.65
2022-11-28T01:33:37.529Z,30.15
2022-11-28T01:36:04.971Z,26.73
2022-11-28T01:38:31.865Z,21.40
2022-11-28T01:40:59.322Z,21.35
2022-11-28T01:43:26.256Z,25.38
2022-11-28T01:45:54.035Z,19.00
2022-11-28T01:48:37.707Z,18.67
2022-11-28T01:51:09.075Z,16.20
2022-11-28T01:53:40.264Z,18.13
2022-11-28T01:56:17.359Z,22.33
2022-11-28T01:58:48.909Z,17.45
2022-11-28T02:01:16.909Z,17.45
2022-11-28T02:03:46.014Z,15.33
2022-11-28T02:06:17.160Z,16.10
2022-11-28T02:08:44.003Z,16.58
2022-11-28T02:11:26.239Z,14.13
2022-11-28T02:14:14.645Z,13.95
2022-11-28T02:16:56.646Z,13.87
2022-11-28T02:19:44.547Z,23.88
2022-11-28T02:22:14.203Z,23.17
2022-11-28T02:25:02.703Z,24.58
2022-11-28T02:27:57.820Z,22.63
2022-11-28T02:30:33.404Z,18.97
2022-11-28T02:33:26.727Z,18.48
2022-11-28T02:36:10.734Z,20.17
2022-11-28T02:38:51.843Z,17.65
2022-11-28T02:41:35.048Z,16.70
2022-11-28T02:44:16.454Z,15.97
2022-11-28T02:47:05.806Z,16.08
2022-11-28T02:49:46.973Z,21.27
2022-11-28T02:52:18.800Z,19.65
2022-11-28T02:54:46.527Z,18.17
2022-11-28T02:57:13.241Z,18.50
2022-11-28T02:59:42.980Z,18.75
2022-11-28T03:02:30.468Z,16.52
2022-11-28T03:05:15.782Z,16.63
2022-11-28T03:08:10.548Z,18.15
2022-11-28T03:11:07.861Z,17.90
2022-11-28T03:13:40.322Z,23.65
2022-11-28T03:16:17.622Z,20.77
2022-11-28T03:18:50.099Z,21.27
2022-11-28T03:21:25.932Z,17.75
2022-11-28T03:24:01.120Z,16.00
2022-11-28T03:26:56.359Z,15.95
2022-11-28T03:29:38.082Z,17.42
2022-11-28T03:32:20.402Z,23.70
2022-11-28T03:34:51.020Z,22.15
2022-11-28T03:37:23.069Z,16.73
2022-11-28T03:39:54.994Z,25.02
2022-11-28T03:42:24.712Z,25.08
2022-11-28T03:45:01.390Z,18.58
2022-11-28T03:47:34.377Z,24.33
2022-11-28T03:50:06.536Z,22.60
2022-11-28T03:52:40.463Z,24.65
2022-11-28T03:55:32.712Z,27.38
2022-11-28T03:58:16.439Z,22.98
2022-11-28T04:00:59.690Z,23.77
2022-11-28T04:03:45.170Z,22.43
2022-11-28T04:06:23.045Z,20.77
2022-11-28T04:09:02.583Z,17.25
2022-11-28T04:11:42.775Z,15.07
2022-11-28T04:14:23.007Z,14.10
2022-11-28T04:17:05.551Z,18.20
2022-11-28T04:19:43.757Z,14.50
2022-11-28T04:22:16.009Z,15.65
2022-11-28T04:24:48.665Z,14.48
2022-11-28T04:27:19.696Z,17.70
2022-11-28T04:29:52.605Z,21.13
2022-11-28T04:32:21.312Z,18.52
2022-11-28T04:34:55.464Z,14.85
2022-11-28T04:37:24.884Z,14.98
2022-11-28T04:39:54.586Z,14.75
2022-11-28T04:42:26.368Z,14.27
2022-11-28T04:44:58.314Z,14.95
2022-11-28T04:47:25.773Z,20.05
2022-11-28T04:49:53.825Z,16.75
2022-11-28T04:52:35.330Z,20.90
2022-11-28T04:55:19.238Z,21.07
2022-11-28T04:57:57.109Z,18.13
2022-11-28T05:00:26.210Z,17.27
2022-11-28T05:02:54.831Z,20.25
2022-11-28T05:05:25.153Z,19.27
2022-11-28T05:07:52.659Z,21.57
2022-11-28T05:10:19.977Z,17.40
2022-11-28T05:12:46.701Z,15.40
2022-11-28T05:15:18.861Z,14.80
2022-11-28T05:17:46.846Z,13.93
2022-11-28T05:20:14.537Z,15.27
2022-11-28T05:22:41.600Z,15.60
2022-11-28T05:25:08.916Z,16.20
2022-11-28T05:27:35.884Z,14.45
2022-11-28T05:30:04.073Z,14.93
2022-11-28T05:32:31.373Z,17.10
2022-11-28T05:34:58.811Z,13.43
2022-11-28T05:37:26.047Z,16.67
2022-11-28T05:39:52.942Z,18.23
2022-11-28T05:42:20.831Z,16.45
2022-11-28T05:44:50.881Z,16.83
2022-11-28T05:47:17.826Z,20.30
2022-11-28T05:49:46.929Z,21.45
2022-11-28T05:52:13.655Z,20.63
2022-11-28T05:54:40.647Z,19.05
2022-11-28T05:57:07.616Z,16.10
2022-11-28T05:59:35.055Z,17.55
2022-11-28T06:02:01.777Z,16.23
2022-11-28T06:04:28.827Z,15.07
2022-11-28T06:06:55.717Z,15.93
2022-11-28T06:09:25.834Z,17.00
2022-11-28T06:11:53.203Z,25.90
2022-11-28T06:14:20.171Z,22.75
2022-11-28T06:16:46.912Z,26.95
2022-11-28T06:19:13.984Z,25.38
2022-11-28T06:21:41.081Z,25.30
2022-11-28T06:24:09.612Z,31.55
2022-11-28T06:26:36.513Z,31.75
2022-11-28T06:29:03.485Z,31.33
2022-11-28T06:31:30.499Z,27.38
2022-11-28T06:33:58.438Z,27.20
2022-11-28T06:36:26.436Z,23.17
2022-11-28T06:38:54.298Z,22.00
2022-11-28T06:41:22.913Z,18.05
2022-11-28T06:43:50.155Z,22.20
2022-11-28T06:46:21.657Z,21.73
2022-11-28T06:48:50.782Z,22.83
2022-11-28T06:51:18.154Z,20.63
2022-11-28T06:53:45.139Z,33.38
2022-11-28T06:56:15.774Z,31.83
2022-11-28T06:58:44.059Z,33.13
2022-11-28T07:01:19.014Z,29.83
2022-11-28T07:03:46.870Z,23.23
2022-11-28T07:06:14.777Z,23.63
2022-11-28T07:08:42.438Z,22.23
2022-11-28T07:11:15.071Z,22.23
2022-11-28T07:13:43.120Z,28.25
2022-11-28T07:16:14.793Z,33.30
2022-11-28T07:18:42.286Z,27.05
2022-11-28T07:21:09.142Z,25.45
2022-11-28T07:23:37.147Z,27.70
2022-11-28T07:26:04.920Z,22.17
2022-11-28T07:28:32.549Z,24.23
2022-11-28T07:31:12.933Z,23.92
2022-11-28T07:33:41.407Z,24.50
2022-11-28T07:36:13.113Z,28.87
2022-11-28T07:38:40.363Z,29.92
2022-11-28T07:41:09.823Z,28.20
2022-11-28T07:43:38.012Z,34.13
2022-11-28T07:46:07.328Z,28.60
2022-11-28T07:48:35.600Z,36.00
2022-11-28T07:51:11.483Z,35.65
2022-11-28T07:53:39.649Z,30.98
2022-11-28T07:56:14.868Z,29.33
2022-11-28T07:58:45.028Z,27.95
2022-11-28T08:01:20.658Z,32.83
2022-11-28T08:03:47.980Z,25.02
2022-11-28T08:06:16.666Z,25.88
2022-11-28T08:08:43.989Z,28.65
2022-11-28T08:11:11.139Z,27.60
2022-11-28T08:13:39.724Z,39.10
2022-11-28T08:16:09.372Z,33.63
2022-11-28T08:18:36.681Z,35.55
2022-11-28T08:21:11.385Z,33.25
2022-11-28T08:23:39.445Z,36.17
2022-11-28T08:26:09.027Z,34.47
2022-11-28T08:28:36.664Z,38.42
2022-11-28T08:31:17.400Z,35.42
2022-11-28T08:33:46.413Z,32.47
2022-11-28T08:36:15.296Z,32.20
2022-11-28T08:38:53.444Z,28.13
2022-11-28T08:41:29.994Z,30.45
2022-11-28T08:43:56.899Z,30.92
2022-11-28T08:46:23.977Z,34.97
2022-11-28T08:48:52.677Z,33.22
2022-11-28T08:51:26.571Z,28.23
2022-11-28T08:53:59.095Z,25.13
2022-11-28T08:56:26.500Z,27.17
2022-11-28T08:58:53.468Z,23.10
2022-11-28T09:01:22.750Z,23.75
2022-11-28T09:03:50.839Z,24.00
2022-11-28T09:06:18.961Z,27.05
2022-11-28T09:08:46.572Z,30.85
2022-11-28T09:11:16.759Z,25.45
2022-11-28T09:13:44.539Z,25.27
2022-11-28T09:16:11.896Z,31.53
2022-11-28T09:18:39.090Z,42.53
2022-11-28T09:21:11.876Z,28.35
2022-11-28T09:23:41.052Z,37.85
2022-11-28T09:26:09.639Z,32.58
2022-11-28T09:28:36.834Z,36.00
2022-11-28T09:31:05.752Z,34.03
2022-11-28T09:33:33.111Z,38.67
2022-11-28T09:36:04.676Z,31.60
2022-11-28T09:38:31.611Z,32.08
2022-11-28T09:40:58.374Z,34.23
2022-11-28T09:43:44.052Z,29.92
2022-11-28T09:46:19.311Z,28.88
2022-11-28T09:48:51.064Z,31.70
2022-11-28T09:51:37.082Z,31.55
2022-11-28T09:54:48.658Z,31.70
2022-11-28T09:57:26.083Z,30.65
2022-11-28T09:59:53.043Z,28.65
2022-11-28T10:02:29.283Z,24.77
2022-11-28T10:05:02.239Z,31.95
2022-11-28T10:07:56.534Z,24.37
2022-11-28T10:10:38.533Z,26.50
2022-11-28T10:13:24.383Z,25.27
2022-11-28T10:15:55.169Z,30.35
2022-11-28T10:18:47.017Z,31.38
2022-11-28T10:21:39.125Z,34.77
2022-11-28T10:24:16.595Z,39.00
2022-11-28T10:26:48.554Z,42.47
2022-11-28T10:29:38.694Z,50.40
2022-11-28T10:32:06.244Z,43.80
2022-11-28T10:34:43.625Z,37.67
2022-11-28T10:37:21.444Z,33.38
2022-11-28T10:39:48.661Z,29.35
2022-11-28T10:42:28.359Z,29.45
2022-11-28T10:45:13.015Z,38.35
2022-11-28T10:48:38.368Z,31.27
2022-11-28T10:51:33.853Z,29.88
2022-11-28T10:54:42.974Z,29.45
2022-11-28T10:57:17.684Z,28.10
2022-11-28T11:00:12.295Z,26.95
2022-11-28T11:02:50.044Z,30.73
2022-11-28T11:05:24.300Z,48.88
2022-11-28T11:08:24.684Z,40.65
2022-11-28T11:10:53.003Z,42.45
2022-11-28T11:13:25.704Z,45.92
2022-11-28T11:16:03.087Z,42.93
2022-11-28T11:18:34.552Z,40.40
2022-11-28T11:21:22.850Z,34.95
2022-11-28T11:23:50.681Z,33.70
2022-11-28T11:26:28.797Z,28.88
2022-11-28T11:28:56.497Z,25.27
2022-11-28T11:31:27.804Z,23.25
2022-11-28T11:34:15.529Z,22.70
2022-11-28T11:36:42.547Z,21.13
2022-11-28T11:39:15.253Z,23.77
2022-11-28T11:41:50.661Z,24.03
2022-11-28T11:44:29.307Z,24.95
2022-11-28T11:46:57.742Z,21.20
2022-11-28T11:49:28.667Z,21.30
2022-11-28T11:52:02.213Z,24.20
2022-11-28T11:54:29.401Z,22.40
2022-11-28T11:57:24.992Z,23.85
2022-11-28T11:59:50.679Z,22.05
2022-11-28T12:02:32.453Z,22.38
2022-11-28T12:05:05.639Z,22.95
2022-11-28T12:08:10.845Z,21.37
2022-11-28T12:10:45.272Z,24.88
2022-11-28T12:13:19.290Z,27.13
2022-11-28T12:16:31.154Z,22.17
2022-11-28T12:19:12.909Z,22.52
2022-11-28T12:21:56.919Z,20.93
2022-11-28T12:24:40.472Z,23.90
2022-11-28T12:27:31.592Z,21.55
2022-11-28T12:30:29.946Z,21.58
2022-11-28T12:33:16.952Z,21.48
2022-11-28T12:36:03.138Z,23.73
2022-11-28T12:38:36.648Z,24.53
2022-11-28T12:41:12.253Z,26.10
2022-11-28T12:44:06.051Z,23.70
2022-11-28T12:46:40.172Z,43.33
2022-11-28T12:49:14.359Z,39.65
2022-11-28T12:51:53.278Z,32.93
2022-11-28T12:54:41.455Z,30.10
2022-11-28T12:57:17.921Z,31.70
2022-11-28T13:00:15.219Z,31.05
2022-11-28T13:02:57.405Z,40.50
2022-11-28T13:05:36.157Z,24.97
2022-11-28T13:08:27.642Z,22.27
2022-11-28T13:11:31.649Z,21.10
2022-11-28T13:14:05.159Z,28.83
2022-11-28T13:16:54.627Z,25.38
2022-11-28T13:19:42.408Z,25.60
2022-11-28T13:22:28.800Z,23.50
2022-11-28T13:25:22.585Z,29.15
2022-11-28T13:28:15.790Z,30.10
2022-11-28T13:30:48.473Z,28.40
2022-11-28T13:33:35.864Z,30.43
2022-11-28T13:36:04.128Z,37.10
2022-11-28T13:39:11.370Z,39.20
2022-11-28T13:45:02.860Z,30.15
2022-11-28T13:47:34.595Z,32.17
2022-11-28T13:50:23.080Z,36.80
2022-11-28T13:53:20.897Z,30.90
2022-11-28T13:55:51.149Z,26.33
2022-11-28T13:58:29.203Z,26.90
2022-11-28T14:01:12.272Z,32.63
2022-11-28T14:03:58.283Z,23.25
2022-11-28T14:06:42.071Z,25.40
2022-11-28T14:09:11.770Z,21.52
2022-11-28T14:11:49.699Z,28.50
2022-11-28T14:14:22.877Z,22.77
2022-11-28T14:17:35.915Z,24.13
2022-11-28T14:20:20.511Z,21.33
2022-11-28T14:23:25.717Z,20.90
2022-11-28T14:25:54.667Z,21.20
2022-11-28T14:28:30.501Z,20.97
2022-11-28T14:31:18.078Z,22.70
2022-11-28T14:33:46.308Z,24.98
2022-11-28T14:36:33.921Z,21.08
2022-11-28T14:39:16.307Z,29.95
2022-11-28T14:42:36.736Z,24.20
2022-11-28T14:45:38.396Z,27.52
2022-11-28T14:48:16.586Z,23.35
2022-11-28T14:50:59.077Z,23.85
2022-11-28T14:53:44.952Z,20.98
2022-11-28T14:56:15.394Z,19.97
2022-11-28T14:58:55.649Z,20.38
2022-11-28T15:01:49.292Z,21.88
2022-11-28T15:04:53.464Z,18.35
2022-11-28T15:07:20.512Z,18.58
2022-11-28T15:10:07.556Z,21.00
2022-11-28T15:13:03.239Z,19.25
2022-11-28T15:15:31.959Z,19.35
2022-11-28T15:18:03.000Z,17.38
2022-11-28T15:20:42.573Z,16.48
2022-11-28T15:23:34.040Z,17.57
2022-11-28T15:26:02.264Z,16.63
2022-11-28T15:28:32.427Z,18.10
2022-11-28T15:31:01.621Z,18.95
2022-11-28T15:33:29.755Z,18.15
2022-11-28T15:35:59.758Z,25.77
2022-11-28T15:38:28.534Z,22.23
2022-11-28T15:40:56.650Z,22.40
2022-11-28T15:43:24.768Z,17.55
2022-11-28T15:45:58.493Z,19.17
2022-11-28T15:48:49.446Z,17.63
2022-11-28T15:51:23.869Z,15.40
2022-11-28T15:53:50.850Z,21.55
2022-11-28T15:56:17.560Z,17.27
2022-11-28T15:58:47.768Z,19.42
2022-11-28T16:01:14.863Z,17.17
2022-11-28T16:03:54.808Z,20.93
2022-11-28T16:06:24.847Z,21.27
2022-11-28T16:08:59.015Z,21.45
2022-11-28T16:11:28.560Z,20.52
2022-11-28T16:13:58.369Z,32.00
2022-11-28T16:16:29.098Z,27.13
2022-11-28T16:18:58.628Z,24.25
2022-11-28T16:21:29.965Z,27.08
2022-11-28T16:23:56.962Z,30.77
2022-11-28T16:26:35.680Z,26.27
2022-11-28T16:29:05.667Z,29.23
2022-11-28T16:31:33.801Z,27.50
2022-11-28T16:34:02.724Z,25.98
2022-11-28T16:36:36.901Z,19.02
2022-11-28T16:39:16.907Z,19.85
2022-11-28T16:41:52.042Z,20.47
2022-11-28T16:44:22.198Z,17.85
2022-11-28T16:46:57.150Z,16.98
2022-11-28T16:49:42.413Z,17.88
2022-11-28T16:52:21.288Z,18.55
2022-11-28T16:54:49.747Z,17.17
2022-11-28T16:57:17.168Z,17.08
2022-11-28T16:59:45.077Z,18.33
2022-11-28T17:02:14.875Z,16.75
2022-11-28T17:04:42.080Z,18.58
2022-11-28T17:07:13.740Z,17.57
2022-11-28T17:09:46.545Z,18.17
2022-11-28T17:12:29.723Z,19.27
2022-11-28T17:14:58.318Z,20.90
2022-11-28T17:17:25.284Z,20.90
2022-11-28T17:19:52.212Z,20.60
2022-11-28T17:22:21.786Z,19.77
2022-11-28T17:24:50.014Z,21.48
2022-11-28T17:27:16.920Z,21.75
2022-11-28T17:29:44.232Z,29.85
2022-11-28T17:32:13.492Z,25.03
2022-11-28T17:34:42.038Z,24.17
2022-11-28T17:37:09.503Z,27.65
2022-11-28T17:39:36.472Z,28.50
2022-11-28T17:42:03.971Z,24.20
2022-11-28T17:44:34.046Z,26.70
2022-11-28T17:47:02.240Z,27.80
2022-11-28T17:49:30.794Z,22.08
2022-11-28T17:51:58.433Z,28.42
2022-11-28T17:54:26.853Z,32.15
2022-11-28T17:56:54.371Z,25.53
2022-11-28T17:59:23.220Z,23.65
2022-11-28T18:01:50.649Z,26.90
2022-11-28T18:04:23.475Z,28.60
2022-11-28T18:06:50.188Z,29.45
2022-11-28T18:09:17.366Z,32.37
2022-11-28T18:11:46.793Z,38.80
2022-11-28T18:14:14.063Z,33.97
2022-11-28T18:16:43.770Z,32.85
2022-11-28T18:19:11.242Z,29.42
2022-11-28T18:21:38.868Z,30.37
2022-11-28T18:24:06.137Z,28.42
2022-11-28T18:26:32.986Z,26.58
2022-11-28T18:29:00.050Z,27.88
2022-11-28T18:31:29.273Z,28.27
2022-11-28T18:34:02.041Z,24.93
2022-11-28T18:36:33.364Z,26.88
2022-11-28T18:39:03.100Z,24.80
2022-11-28T18:41:30.662Z,26.45
2022-11-28T18:43:59.370Z,27.63
2022-11-28T18:46:28.343Z,27.93
2022-11-28T18:48:55.983Z,26.75
2022-11-28T18:51:30.382Z,27.08
2022-11-28T18:53:58.225Z,26.30
2022-11-28T18:56:26.282Z,25.08
2022-11-28T18:58:54.603Z,24.73
2022-11-28T19:01:28.598Z,29.30
2022-11-28T19:03:58.547Z,25.92
2022-11-28T19:06:25.766Z,24.58
2022-11-28T19:08:54.832Z,23.83
2022-11-28T19:11:23.114Z,21.00
2022-11-28T19:13:52.793Z,20.20
2022-11-28T19:16:26.181Z,17.02
2022-11-28T19:18:53.427Z,22.70
2022-11-28T19:21:24.011Z,26.45
2022-11-28T19:23:52.030Z,22.93
2022-11-28T19:26:22.443Z,23.17
2022-11-28T19:28:50.547Z,20.70
2022-11-28T19:31:21.042Z,22.48
2022-11-28T19:34:06.476Z,24.20
2022-11-28T19:36:37.540Z,24.70
2022-11-28T19:39:05.160Z,34.30
2022-11-28T19:41:33.775Z,35.42
2022-11-28T19:44:01.322Z,39.20
2022-11-28T19:46:35.029Z,36.22
2022-11-28T19:49:04.790Z,36.87
2022-11-28T19:51:31.683Z,37.58
2022-11-28T19:54:03.635Z,30.40
2022-11-28T19:56:32.456Z,27.38
2022-11-28T19:59:00.160Z,25.25
2022-11-28T20:01:28.664Z,22.87
2022-11-28T20:03:55.720Z,22.23
2022-11-28T20:06:28.243Z,21.10
2022-11-28T20:08:59.000Z,20.85
2022-11-28T20:11:29.343Z,25.52
2022-11-28T20:13:58.376Z,25.47
2022-11-28T20:16:25.936Z,39.05
2022-11-28T20:18:53.704Z,37.03
2022-11-28T20:21:21.369Z,35.72
2022-11-28T20:23:50.780Z,27.45
2022-11-28T20:26:19.714Z,23.50
2022-11-28T20:28:47.550Z,22.33
2022-11-28T20:31:25.293Z,21.85
2022-11-28T20:33:54.008Z,18.75
2022-11-28T20:36:25.598Z,19.67
2022-11-28T20:38:54.351Z,19.87
2022-11-28T20:41:22.551Z,17.25
2022-11-28T20:43:51.104Z,21.00
2022-11-28T20:46:21.576Z,21.77
2022-11-28T20:48:49.548Z,27.63
2022-11-28T20:51:22.232Z,20.17
2022-11-28T20:53:49.244Z,25.05
2022-11-28T20:56:19.479Z,26.08
2022-11-28T20:58:47.243Z,23.20
2022-11-28T21:01:16.373Z,22.52
2022-11-28T21:03:44.139Z,21.43
2022-11-28T21:06:12.780Z,19.20
2022-11-28T21:08:40.744Z,21.27
2022-11-28T21:11:25.299Z,22.38
2022-11-28T21:13:59.608Z,23.92
2022-11-28T21:16:29.682Z,22.00
2022-11-28T21:18:58.464Z,20.45
2022-11-28T21:21:28.187Z,20.83
2022-11-28T21:24:04.036Z,21.02
2022-11-28T21:26:40.511Z,23.60
2022-11-28T21:29:11.299Z,17.83
2022-11-28T21:31:42.167Z,19.58
2022-11-28T21:34:14.781Z,27.15
2022-11-28T21:36:42.025Z,29.63
2022-11-28T21:39:13.490Z,31.70
2022-11-28T21:41:40.384Z,26.70
2022-11-28T21:44:07.846Z,29.92
2022-11-28T21:46:34.686Z,25.05
2022-11-28T21:49:02.001Z,21.88
2022-11-28T21:51:29.012Z,23.15
2022-11-28T21:54:00.207Z,23.23
2022-11-28T21:56:27.107Z,21.90
2022-11-28T21:58:54.259Z,24.60
2022-11-28T22:01:21.346Z,26.42
2022-11-28T22:03:49.196Z,23.83
2022-11-28T22:06:20.232Z,24.33
2022-11-28T22:08:49.073Z,27.02
2022-11-28T22:11:16.459Z,25.20
2022-11-28T22:13:47.589Z,23.65
2022-11-28T22:16:16.142Z,24.58
2022-11-28T22:18:46.771Z,26.60
2022-11-28T22:21:49.881Z,22.45
2022-11-28T22:24:03.632Z,23.83
2022-11-28T22:26:30.470Z,26.80
2022-11-28T22:28:58.944Z,26.25
2022-11-28T22:31:25.908Z,27.33
2022-11-28T22:33:53.119Z,26.70
2022-11-28T22:36:21.196Z,24.85
2022-11-28T22:38:53.529Z,24.75
2022-11-28T22:41:28.387Z,32.08
2022-11-28T22:44:00.724Z,28.27
2022-11-28T22:46:28.597Z,24.08
2022-11-28T22:48:56.502Z,24.52
2022-11-28T22:51:25.557Z,27.98
2022-11-28T22:53:58.956Z,28.98
2022-11-28T22:56:28.328Z,26.47
2022-11-28T22:58:55.592Z,31.30
2022-11-28T23:01:29.650Z,29.73
2022-11-28T23:03:57.415Z,26.83
2022-11-28T23:06:27.201Z,29.02
2022-11-28T23:08:56.875Z,29.33
2022-11-28T23:11:28.487Z,26.65
2022-11-28T23:13:55.697Z,27.90
2022-11-28T23:16:25.957Z,29.50
2022-11-28T23:18:59.741Z,27.92
2022-11-28T23:21:30.641Z,34.00
2022-11-28T23:23:58.176Z,30.67
2022-11-28T23:26:29.560Z,26.33
2022-11-28T23:28:58.876Z,22.70
2022-11-28T23:31:30.332Z,23.83
2022-11-28T23:33:58.090Z,24.67
2022-11-28T23:36:25.816Z,28.48
2022-11-28T23:39:02.240Z,25.50
2022-11-28T23:41:30.124Z,30.42
2022-11-28T23:43:58.076Z,28.88
2022-11-28T23:46:25.542Z,26.03
2022-11-28T23:48:52.610Z,34.45
2022-11-28T23:51:21.393Z,27.80
2022-11-28T23:53:48.444Z,27.83
2022-11-28T23:56:20.147Z,27.25
2022-11-28T23:58:47.436Z,24.60
